Time;durP1;ratioP1;P1;durP2;ratioP2;P2;SDS_P1;SDS_P2;PMS_P1;PMS_P2;Temp;Humidity;BMP_temperature;BMP_pressure;BME280_temperature;BME280_humidity;BME280_pressure;Samples;Min_cycle;Max_cycle;Signal;HPM_P1;HPM_P2
2021/11/03 00:01:28;;;;;;;7.78;6.97;;;;;;;15.39;50.02;98962.27;1773839;78;21034;-62
2021/11/03 00:03:54;;;;;;;8.05;7.03;;;;;;;15.39;50.03;98962.27;1766825;78;21025;-61
2021/11/03 00:06:22;;;;;;;6.80;6.20;;;;;;;15.40;50.03;98969.27;1774786;78;21592;-61
2021/11/03 00:08:48;;;;;;;8.00;7.05;;;;;;;15.40;50.03;98958.56;1763259;80;21361;-60
2021/11/03 00:11:15;;;;;;;6.90;6.28;;;;;;;15.40;50.03;98957.75;1774124;78;23341;-61
2021/11/03 00:13:42;;;;;;;7.25;6.55;;;;;;;15.40;50.03;98961.23;1769607;78;21474;-62
2021/11/03 00:16:08;;;;;;;7.28;6.58;;;;;;;15.41;50.02;98962.05;1775374;78;22033;-61
2021/11/03 00:18:36;;;;;;;7.70;6.90;;;;;;;15.41;50.02;98966.06;1765847;78;21536;-62
2021/11/03 00:21:04;;;;;;;7.33;6.45;;;;;;;15.40;50.01;98965.25;1774766;78;21069;-62
2021/11/03 00:23:30;;;;;;;8.23;7.42;;;;;;;15.42;50.01;98962.36;1756839;80;21227;-61
2021/11/03 00:25:58;;;;;;;8.65;7.67;;;;;;;15.41;50.01;98962.86;1777822;80;21026;-61
2021/11/03 00:28:24;;;;;;;8.13;6.97;;;;;;;15.41;50.02;98968.21;1777539;78;21002;-61
2021/11/03 00:30:54;;;;;;;8.55;7.75;;;;;;;15.41;50.03;98962.86;1764803;78;21121;-60
2021/11/03 00:33:23;;;;;;;8.03;7.00;;;;;;;15.41;50.02;98967.41;1777966;78;21301;-61
2021/11/03 00:35:51;;;;;;;7.87;7.08;;;;;;;15.41;50.02;98963.39;1770575;78;21179;-61
2021/11/03 00:38:19;;;;;;;7.37;6.42;;;;;;;15.40;50.04;98959.90;1766171;80;21009;-61
2021/11/03 00:40:45;;;;;;;7.40;6.70;;;;;;;15.40;50.03;98961.77;1761718;78;21030;-62
2021/11/03 00:43:12;;;;;;;8.43;7.62;;;;;;;15.39;50.04;98959.59;1781814;78;20990;-61
2021/11/03 00:45:39;;;;;;;8.30;7.50;;;;;;;15.39;50.05;98959.59;1766743;78;21466;-60
2021/11/03 00:48:06;;;;;;;9.03;8.03;;;;;;;15.39;50.06;98959.59;1760567;78;22285;-60
2021/11/03 00:50:33;;;;;;;7.72;7.03;;;;;;;15.40;50.05;98957.75;1769966;80;21052;-61
2021/11/03 00:52:59;;;;;;;8.70;7.80;;;;;;;15.38;50.07;98961.98;1767177;78;21509;-61
2021/11/03 00:55:26;;;;;;;8.03;6.95;;;;;;;15.40;50.05;98966.59;1767595;78;21061;-61
2021/11/03 00:57:52;;;;;;;7.67;6.87;;;;;;;15.40;50.05;98964.44;1767243;78;21086;-61
2021/11/03 01:00:19;;;;;;;8.35;7.55;;;;;;;15.39;50.06;98963.59;1773353;80;21057;-60
2021/11/03 01:02:47;;;;;;;9.00;8.10;;;;;;;15.39;50.06;98957.44;1765525;78;21596;-61
2021/11/03 01:05:16;;;;;;;8.10;7.30;;;;;;;15.39;50.06;98965.47;1765921;78;21683;-60
2021/11/03 01:07:42;;;;;;;8.70;7.42;;;;;;;15.38;50.08;98965.99;1779386;78;20991;-60
2021/11/03 01:10:09;;;;;;;8.13;7.33;;;;;;;15.39;50.08;98964.13;1788632;78;21072;-59
2021/11/03 01:12:36;;;;;;;8.83;7.92;;;;;;;15.39;50.07;98962.27;1795985;78;21126;-59
2021/11/03 01:15:06;;;;;;;8.75;7.85;;;;;;;15.39;50.10;98967.61;1777916;80;21088;-61
2021/11/03 01:17:33;;;;;;;9.70;7.65;;;;;;;15.39;50.11;98972.16;1778199;80;21053;-60
2021/11/03 01:19:59;;;;;;;8.00;7.20;;;;;;;15.38;50.11;98964.66;1776795;80;21046;-61
2021/11/03 01:22:26;;;;;;;8.83;7.92;;;;;;;15.39;50.10;98962.79;1777916;80;21011;-60
2021/11/03 01:24:52;;;;;;;9.70;8.13;;;;;;;15.39;50.11;98969.48;1777833;80;21052;-61
2021/11/03 01:27:18;;;;;;;8.23;7.47;;;;;;;15.39;50.09;98958.25;1798322;78;21010;-59
2021/11/03 01:29:45;;;;;;;7.83;7.05;;;;;;;15.39;50.11;98957.44;1797970;78;21000;-62
2021/11/03 01:32:11;;;;;;;8.50;7.60;;;;;;;15.39;50.11;98956.91;1798283;78;21021;-60
2021/11/03 01:34:37;;;;;;;8.60;7.70;;;;;;;15.39;50.08;98962.79;1768396;78;21088;-61
2021/11/03 01:37:04;;;;;;;9.35;8.03;;;;;;;15.39;50.10;98957.44;1786228;78;21930;-61
2021/11/03 01:39:31;;;;;;;8.20;7.40;;;;;;;15.39;50.10;98954.76;1783726;79;21092;-60
2021/11/03 01:41:57;;;;;;;8.75;7.85;;;;;;;15.39;50.11;98954.76;1797691;78;21056;-60
2021/11/03 01:44:24;;;;;;;9.50;8.55;;;;;;;15.39;50.10;98956.09;1779665;78;20973;-60
2021/11/03 01:47:17;;;;;;;8.18;7.37;;;;;;;15.39;50.12;98954.76;1785340;79;20988;-60
2021/11/03 01:49:46;;;;;;;8.55;7.75;;;;;;;15.38;50.13;98953.95;1767137;80;21076;-61
2021/11/03 01:52:14;;;;;;;8.03;7.22;;;;;;;15.38;50.14;98957.16;1789277;78;20974;-60
2021/11/03 01:54:47;;;;;;;8.33;7.53;;;;;;;15.38;50.18;98965.18;1766337;80;21516;-60
2021/11/03 01:57:19;;;;;;;8.58;7.55;;;;;;;15.37;50.19;98958.98;1765566;79;21068;-60
2021/11/03 01:59:49;;;;;;;8.98;8.13;;;;;;;15.37;50.17;98960.33;1800720;79;21040;-60
2021/11/03 02:02:18;;;;;;;8.48;7.67;;;;;;;15.36;50.18;98964.05;1784883;79;21103;-62
2021/11/03 02:04:45;;;;;;;8.63;7.78;;;;;;;15.37;50.18;98964.87;1759064;80;21053;-61
2021/11/03 02:07:16;;;;;;;9.20;8.30;;;;;;;15.36;50.19;98965.39;1779213;79;21028;-61
2021/11/03 02:09:43;;;;;;;9.20;8.15;;;;;;;15.36;50.18;98957.36;1778987;78;21002;-60
2021/11/03 02:12:25;;;;;;;9.65;8.75;;;;;;;15.36;50.19;98964.05;1759068;79;21026;-60
2021/11/03 02:14:52;;;;;;;9.68;8.08;;;;;;;15.37;50.19;98965.67;1764035;78;21143;-61
2021/11/03 02:17:20;;;;;;;8.73;7.72;;;;;;;15.36;50.19;98970.74;1753466;78;21033;-60
2021/11/03 02:19:47;;;;;;;8.90;8.00;;;;;;;15.36;50.19;98963.24;1761940;78;21064;-60
2021/11/03 02:22:25;;;;;;;8.48;7.67;;;;;;;15.37;50.19;98960.33;1754116;78;21024;-61
2021/11/03 02:25:06;;;;;;;8.40;7.55;;;;;;;15.37;50.20;98963.53;1763392;78;21021;-62
2021/11/03 02:27:33;;;;;;;9.13;8.23;;;;;;;15.36;50.21;98954.69;1770261;79;21153;-61
2021/11/03 02:30:00;;;;;;;8.35;7.53;;;;;;;15.36;50.22;98961.38;1771884;80;21466;-61
2021/11/03 02:32:29;;;;;;;8.73;7.75;;;;;;;15.36;50.21;98962.72;1764173;78;21046;-61
2021/11/03 02:34:56;;;;;;;8.85;7.65;;;;;;;15.36;50.22;98961.38;1774035;78;21001;-61
2021/11/03 02:37:34;;;;;;;8.93;7.75;;;;;;;15.36;50.24;98962.72;1775445;78;21608;-61
2021/11/03 02:40:23;;;;;;;9.15;8.03;;;;;;;15.36;50.22;98956.55;1776661;78;21100;-61
2021/11/03 02:43:00;;;;;;;8.33;7.42;;;;;;;15.36;50.24;98958.70;1754175;78;21034;-61
2021/11/03 02:45:33;;;;;;;9.73;8.05;;;;;;;15.36;50.25;98948.00;1770211;80;21047;-62
2021/11/03 02:47:59;;;;;;;9.53;8.48;;;;;;;15.33;50.27;98955.92;1762317;78;21579;-61
2021/11/03 02:50:26;;;;;;;8.80;7.90;;;;;;;15.34;50.26;98952.75;1776815;78;21014;-61
2021/11/03 02:52:52;;;;;;;8.83;7.97;;;;;;;15.34;50.28;98959.44;1774200;80;21209;-61
2021/11/03 02:55:19;;;;;;;9.03;8.13;;;;;;;15.34;50.29;98963.45;1774926;78;21037;-60
2021/11/03 02:57:46;;;;;;;8.50;7.67;;;;;;;15.34;50.28;98966.94;1776815;78;21576;-60
2021/11/03 03:00:17;;;;;;;8.50;7.67;;;;;;;15.34;50.28;98965.60;1775834;78;21055;-60
2021/11/03 03:02:44;;;;;;;9.03;8.13;;;;;;;15.36;50.27;98965.92;1768816;78;21061;-60
2021/11/03 03:05:11;;;;;;;9.05;8.15;;;;;;;15.34;50.29;98966.13;1763192;78;23362;-61
2021/11/03 03:07:37;;;;;;;8.88;7.90;;;;;;;15.36;50.28;98973.95;1770114;80;21509;-60
2021/11/03 03:10:05;;;;;;;8.50;7.58;;;;;;;15.37;50.29;98986.27;1766368;78;21544;-61
2021/11/03 03:12:32;;;;;;;8.28;7.47;;;;;;;15.36;50.28;98982.78;1785141;79;21560;-61
2021/11/03 03:14:59;;;;;;;9.23;8.10;;;;;;;15.37;50.27;98989.77;1797096;78;21024;-60
2021/11/03 03:17:26;;;;;;;9.50;8.53;;;;;;;15.37;50.28;98985.75;1796608;79;21114;-61
2021/11/03 03:19:52;;;;;;;9.55;8.45;;;;;;;15.37;50.26;98979.05;1797721;79;21022;-60
2021/11/03 03:25:13;;;;;;;8.80;7.90;;;;;;;15.40;50.28;98966.59;1863617;75;28022;-61
2021/11/03 03:27:40;;;;;;;9.20;8.30;;;;;;;15.36;50.30;98968.06;1839255;77;21054;-61
2021/11/03 03:30:09;;;;;;;9.63;8.63;;;;;;;15.37;50.32;98960.85;1851985;77;21067;-60
2021/11/03 03:32:36;;;;;;;11.20;8.63;;;;;;;15.37;50.32;98958.98;1859088;77;20983;-60
2021/11/03 03:35:04;;;;;;;9.08;8.18;;;;;;;15.37;50.29;98953.63;1859322;77;20925;-61
2021/11/03 03:37:32;;;;;;;8.78;7.95;;;;;;;15.38;50.31;98955.81;1858804;77;21509;-61
2021/11/03 03:39:58;;;;;;;9.08;8.18;;;;;;;15.36;50.28;98950.67;1849434;77;21029;-61
2021/11/03 03:42:25;;;;;;;8.63;7.72;;;;;;;15.37;50.30;98959.52;1852167;77;21189;-61
2021/11/03 03:44:51;;;;;;;8.58;7.78;;;;;;;15.37;50.31;98961.66;1843071;77;20942;-61
2021/11/03 03:47:18;;;;;;;8.25;7.45;;;;;;;15.39;50.28;98965.47;1850388;77;21037;-61
2021/11/03 03:49:45;;;;;;;10.43;8.93;;;;;;;15.38;50.28;98963.84;1856858;77;21076;-61
2021/11/03 03:52:14;;;;;;;8.98;8.05;;;;;;;15.37;50.29;98971.03;1859796;77;21123;-58
2021/11/03 03:54:40;;;;;;;9.23;8.30;;;;;;;15.37;50.31;98971.03;1855771;77;22339;-60
2021/11/03 03:57:07;;;;;;;9.30;8.40;;;;;;;15.36;50.29;98965.39;1853384;77;21634;-61
2021/11/03 03:59:34;;;;;;;9.43;8.53;;;;;;;15.39;50.31;98978.84;1853274;77;21507;-60
2021/11/03 04:02:01;;;;;;;9.58;8.65;;;;;;;15.38;50.31;98967.86;1835806;77;21069;-61
2021/11/03 04:04:28;;;;;;;9.68;8.00;;;;;;;15.38;50.33;98977.22;1849200;77;20977;-59
2021/11/03 04:06:54;;;;;;;9.00;8.10;;;;;;;15.37;50.31;98976.38;1857073;77;21131;-60
2021/11/03 04:09:21;;;;;;;9.20;8.33;;;;;;;15.37;50.32;98968.35;1856698;77;21154;-62
2021/11/03 04:11:48;;;;;;;9.15;8.28;;;;;;;15.37;50.32;98959.52;1856210;77;21002;-60
2021/11/03 04:14:16;;;;;;;9.45;8.53;;;;;;;15.37;50.33;98964.34;1857760;77;21333;-60
2021/11/03 04:16:43;;;;;;;9.00;8.10;;;;;;;15.38;50.33;98967.86;1859950;77;21072;-61
2021/11/03 04:19:10;;;;;;;9.48;8.45;;;;;;;15.38;50.34;98975.88;1856107;77;21032;-60
2021/11/03 04:21:38;;;;;;;9.25;7.95;;;;;;;15.38;50.35;98967.33;1859380;77;21020;-61
2021/11/03 04:24:05;;;;;;;9.18;8.23;;;;;;;15.37;50.34;98971.03;1812898;77;21004;-61
2021/11/03 04:26:35;;;;;;;9.53;8.63;;;;;;;15.37;50.35;98977.72;1832986;77;21053;-60
2021/11/03 04:29:04;;;;;;;9.55;8.50;;;;;;;15.38;50.35;98972.69;1833139;77;21089;-61
2021/11/03 04:31:31;;;;;;;9.30;8.25;;;;;;;15.37;50.36;98974.23;1848321;77;21542;-60
2021/11/03 04:33:58;;;;;;;9.40;8.43;;;;;;;15.36;50.36;98977.44;1843922;77;21026;-61
2021/11/03 04:36:27;;;;;;;9.08;8.18;;;;;;;15.37;50.38;98980.39;1845692;77;21885;-60
2021/11/03 04:38:55;;;;;;;10.13;8.45;;;;;;;15.36;50.35;98980.64;1845455;77;21061;-61
2021/11/03 04:41:22;;;;;;;9.90;8.90;;;;;;;15.37;50.38;98979.05;1845715;77;21013;-60
2021/11/03 04:43:51;;;;;;;9.28;8.38;;;;;;;15.37;50.37;98984.41;1842917;77;21777;-60
2021/11/03 04:46:18;;;;;;;9.05;8.20;;;;;;;15.36;50.38;98982.78;1839476;77;21633;-62
2021/11/03 04:48:47;;;;;;;9.03;8.08;;;;;;;15.37;50.38;98990.29;1832825;77;21060;-60
2021/11/03 04:51:15;;;;;;;8.70;7.80;;;;;;;15.37;50.39;98993.78;1846894;77;21486;-61
2021/11/03 04:53:42;;;;;;;9.08;8.18;;;;;;;15.36;50.39;98992.16;1846951;77;20994;-61
2021/11/03 04:56:10;;;;;;;8.78;7.92;;;;;;;15.36;50.39;98992.16;1846773;77;23261;-61
2021/11/03 04:58:39;;;;;;;9.10;8.23;;;;;;;15.37;50.39;98990.29;1847506;77;21010;-60
2021/11/03 05:01:07;;;;;;;9.23;8.33;;;;;;;15.36;50.41;99000.19;1818196;77;21087;-61
2021/11/03 05:03:34;;;;;;;9.48;8.58;;;;;;;15.37;50.41;99000.47;1846865;77;21063;-60
2021/11/03 05:06:04;;;;;;;9.70;8.70;;;;;;;15.36;50.42;98994.83;1846137;77;21013;-61
2021/11/03 05:08:32;;;;;;;9.08;8.18;;;;;;;15.37;50.42;99000.99;1812435;78;21177;-60
2021/11/03 05:10:58;;;;;;;9.88;8.98;;;;;;;15.37;50.43;99003.67;1814148;77;21355;-61
2021/11/03 05:13:27;;;;;;;9.80;8.80;;;;;;;15.37;50.42;99007.16;1813975;77;21038;-62
2021/11/03 05:15:53;;;;;;;9.13;8.03;;;;;;;15.37;50.46;99000.47;1831679;77;21009;-61
2021/11/03 05:18:21;;;;;;;9.55;8.65;;;;;;;15.36;50.43;99005.53;1836138;77;21045;-63
2021/11/03 05:20:47;;;;;;;9.33;8.33;;;;;;;15.37;50.45;99000.99;1829982;77;21097;-62
2021/11/03 05:23:14;;;;;;;8.60;7.75;;;;;;;15.37;50.45;99003.14;1846380;76;20982;-61
2021/11/03 05:25:40;;;;;;;8.75;7.83;;;;;;;15.38;50.46;99001.31;1842696;77;21002;-61
2021/11/03 05:28:06;;;;;;;8.73;7.92;;;;;;;15.38;50.47;99008.81;1828957;77;21497;-61
2021/11/03 05:30:33;;;;;;;9.15;8.35;;;;;;;15.38;50.47;99010.67;1818186;77;21537;-61
2021/11/03 05:32:59;;;;;;;8.55;7.70;;;;;;;15.38;50.46;99016.84;1826863;77;21561;-62
2021/11/03 05:35:26;;;;;;;8.43;7.50;;;;;;;15.39;50.47;99013.64;1843197;77;21018;-61
2021/11/03 05:37:52;;;;;;;8.55;7.65;;;;;;;15.39;50.47;99012.30;1841212;77;20994;-63
2021/11/03 05:40:23;;;;;;;8.83;7.92;;;;;;;15.39;50.47;99023.81;1827665;77;21490;-60
2021/11/03 05:42:49;;;;;;;8.83;8.00;;;;;;;15.38;50.48;99010.15;1830449;77;21042;-62
2021/11/03 05:45:17;;;;;;;8.40;7.60;;;;;;;15.39;50.47;99021.14;1826842;77;23343;-62
2021/11/03 05:47:44;;;;;;;9.10;8.13;;;;;;;15.39;50.48;99017.13;1838176;77;21042;-61
2021/11/03 05:50:17;;;;;;;8.15;7.42;;;;;;;15.40;50.50;99016.63;1826162;77;20979;-62
2021/11/03 05:52:44;;;;;;;9.03;8.13;;;;;;;15.39;50.46;99025.16;1792111;77;21069;-61
2021/11/03 05:55:11;;;;;;;8.25;7.45;;;;;;;15.40;50.50;99030.82;1827727;77;21077;-63
2021/11/03 05:57:38;;;;;;;8.58;7.67;;;;;;;15.40;50.51;99040.72;1845166;77;21080;-62
2021/11/03 06:00:10;;;;;;;8.43;7.70;;;;;;;15.39;50.51;99057.27;1842700;77;21038;-62
2021/11/03 06:02:38;;;;;;;9.15;8.25;;;;;;;15.40;50.52;99060.79;1817692;77;21056;-62
2021/11/03 06:05:05;;;;;;;8.73;7.90;;;;;;;15.40;50.53;99060.79;1836047;77;20978;-62
2021/11/03 06:07:32;;;;;;;8.70;7.85;;;;;;;15.40;50.53;99072.31;1822459;77;21064;-63
2021/11/03 06:10:02;;;;;;;8.88;7.97;;;;;;;15.40;50.53;99071.49;1835228;77;21022;-60
2021/11/03 06:12:28;;;;;;;7.72;6.92;;;;;;;15.40;50.54;99080.86;1843539;77;21009;-60
2021/11/03 06:14:55;;;;;;;8.53;7.72;;;;;;;15.42;50.54;99074.77;1847851;77;21038;-63
2021/11/03 06:17:23;;;;;;;8.63;7.83;;;;;;;15.42;50.54;99081.47;1761355;80;21078;-61
2021/11/03 06:19:49;;;;;;;8.83;7.92;;;;;;;15.42;50.54;99077.45;1840913;77;21056;-62
2021/11/03 06:22:15;;;;;;;7.67;6.97;;;;;;;15.42;50.54;99082.28;1846382;77;23287;-61
2021/11/03 06:24:47;;;;;;;8.05;7.33;;;;;;;15.43;50.52;99087.95;1838939;77;21528;-62
2021/11/03 06:27:16;;;;;;;7.80;7.10;;;;;;;15.43;50.54;99090.62;1821600;77;21077;-62
2021/11/03 06:29:42;;;;;;;8.00;7.30;;;;;;;15.43;50.54;99085.27;1824501;77;21006;-62
2021/11/03 06:32:09;;;;;;;7.85;7.15;;;;;;;15.44;50.54;99092.77;1847943;77;21081;-62
2021/11/03 06:34:36;;;;;;;7.72;7.03;;;;;;;15.43;50.54;99090.62;1848178;77;21093;-61
2021/11/03 06:37:04;;;;;;;7.28;6.62;;;;;;;15.44;50.55;99089.57;1835827;77;20997;-61
2021/11/03 06:39:31;;;;;;;7.62;6.92;;;;;;;15.43;50.55;99093.30;1847976;77;21028;-61
2021/11/03 06:41:58;;;;;;;7.53;6.83;;;;;;;15.44;50.55;99093.59;1836831;77;20990;-62
2021/11/03 06:44:25;;;;;;;7.80;7.10;;;;;;;15.44;50.55;99104.29;1768322;80;21027;-61
2021/11/03 06:46:51;;;;;;;7.87;7.08;;;;;;;15.44;50.56;99104.29;1789212;79;21062;-62
2021/11/03 06:49:17;;;;;;;7.80;7.00;;;;;;;15.44;50.55;99104.29;1790995;79;21019;-61
2021/11/03 06:51:44;;;;;;;7.33;6.62;;;;;;;15.45;50.57;99103.27;1771542;79;21007;-60
2021/11/03 06:54:10;;;;;;;6.97;6.28;;;;;;;15.46;50.55;99106.76;1766026;80;21502;-61
2021/11/03 06:56:37;;;;;;;7.60;6.90;;;;;;;15.46;50.57;99104.08;1782346;80;21513;-61
2021/11/03 06:59:03;;;;;;;7.28;6.58;;;;;;;15.45;50.55;99104.61;1768867;80;21077;-61
2021/11/03 07:01:31;;;;;;;7.37;6.67;;;;;;;15.46;50.59;99106.23;1782266;80;21046;-62
2021/11/03 07:04:06;;;;;;;7.30;6.58;;;;;;;15.46;50.60;99118.80;1794433;79;21002;-61
2021/11/03 07:06:34;;;;;;;6.92;6.33;;;;;;;15.46;50.59;99119.62;1750717;79;21014;-60
2021/11/03 07:09:02;;;;;;;7.50;6.80;;;;;;;15.47;50.60;99121.77;1768499;79;21037;-63
2021/11/03 07:11:29;;;;;;;6.58;5.90;;;;;;;15.46;50.59;99121.48;1797601;79;21348;-62
2021/11/03 07:13:56;;;;;;;7.42;6.72;;;;;;;15.46;50.60;99128.98;1754316;80;21632;-61
2021/11/03 07:16:24;;;;;;;6.40;5.80;;;;;;;15.47;50.61;99133.81;1787478;79;21065;-60
2021/11/03 07:18:50;;;;;;;6.85;6.25;;;;;;;15.47;50.61;99126.63;1781644;79;20999;-61
2021/11/03 07:21:16;;;;;;;6.80;6.15;;;;;;;15.47;50.61;99126.63;1805132;79;21079;-62
2021/11/03 07:23:43;;;;;;;7.22;6.55;;;;;;;15.48;50.60;99130.92;1797627;79;21083;-62
2021/11/03 07:26:10;;;;;;;6.80;6.08;;;;;;;15.48;50.61;99122.09;1763246;80;21429;-61
2021/11/03 07:28:37;;;;;;;6.25;5.75;;;;;;;15.49;50.64;99127.23;1772782;80;21538;-61
2021/11/03 07:31:04;;;;;;;5.95;5.42;;;;;;;15.49;50.61;99131.25;1760346;80;21517;-62
2021/11/03 07:33:33;;;;;;;7.10;6.40;;;;;;;15.50;50.64;99131.53;1778831;80;21698;-61
2021/11/03 07:35:59;;;;;;;6.45;5.85;;;;;;;15.50;50.64;99127.52;1789219;79;21103;-61
2021/11/03 07:38:26;;;;;;;6.90;6.30;;;;;;;15.50;50.64;99123.50;1764807;80;21069;-62
2021/11/03 07:40:55;;;;;;;6.33;5.67;;;;;;;15.50;50.64;99122.16;1765292;80;21030;-62
2021/11/03 07:43:24;;;;;;;6.33;5.72;;;;;;;15.51;50.64;99129.66;1779197;80;21054;-61
2021/11/03 07:45:51;;;;;;;6.30;5.70;;;;;;;15.50;50.65;99123.50;1784370;79;21018;-63
2021/11/03 07:48:18;;;;;;;7.17;6.47;;;;;;;15.51;50.67;99135.86;1799405;79;21131;-61
2021/11/03 07:50:49;;;;;;;6.87;5.70;;;;;;;15.51;50.67;99133.68;1798061;79;21034;-61
2021/11/03 07:53:15;;;;;;;6.90;6.30;;;;;;;15.51;50.67;99131.84;1800278;79;21017;-61
2021/11/03 07:55:45;;;;;;;6.22;5.72;;;;;;;15.52;50.70;99138.02;1775556;80;21062;-62
2021/11/03 07:58:17;;;;;;;6.87;6.28;;;;;;;15.53;50.71;99141.01;1736172;79;21038;-61
2021/11/03 08:00:43;;;;;;;6.62;6.03;;;;;;;15.53;50.71;99135.13;1791173;79;21836;-62
2021/11/03 08:03:10;;;;;;;6.47;5.87;;;;;;;15.53;50.72;99143.16;1789091;79;21564;-61
2021/11/03 08:05:37;;;;;;;6.05;5.45;;;;;;;15.53;50.75;99151.19;1785555;80;21029;-61
2021/11/03 08:08:10;;;;;;;6.25;5.65;;;;;;;15.54;50.75;99143.45;1793976;79;21323;-61
2021/11/03 08:10:34;;;;;;;6.28;5.45;;;;;;;15.55;50.74;99148.30;1774902;79;21529;-62
2021/11/03 08:13:01;;;;;;;5.80;5.22;;;;;;;15.55;50.77;99152.32;1838228;77;21955;-61
2021/11/03 08:15:27;;;;;;;6.42;5.80;;;;;;;15.56;50.78;99149.12;1810197;77;21022;-62
2021/11/03 08:17:54;;;;;;;6.17;5.58;;;;;;;15.56;50.77;99151.80;1810623;77;21061;-61
2021/11/03 08:20:25;;;;;;;6.35;5.75;;;;;;;15.57;50.77;99151.59;1842975;77;21033;-61
2021/11/03 08:22:54;;;;;;;5.85;5.35;;;;;;;15.59;50.79;99148.67;1848132;77;21014;-61
2021/11/03 08:25:21;;;;;;;5.35;4.85;;;;;;;15.58;50.78;99145.18;1818854;77;21062;-62
2021/11/03 08:27:47;;;;;;;5.95;5.37;;;;;;;15.59;50.79;99156.70;1847878;77;21485;-60
2021/11/03 08:30:14;;;;;;;6.17;5.58;;;;;;;15.59;50.80;99156.70;1847482;77;21100;-62
2021/11/03 08:32:49;;;;;;;6.10;5.50;;;;;;;15.60;50.80;99158.36;1832067;77;21072;-61
2021/11/03 08:35:17;;;;;;;5.60;5.10;;;;;;;15.60;50.80;99162.37;1841612;77;21072;-62
2021/11/03 08:37:44;;;;;;;5.90;5.40;;;;;;;15.60;50.81;99165.86;1846692;77;21159;-60
2021/11/03 08:40:13;;;;;;;5.53;5.03;;;;;;;15.61;50.84;99164.03;1847647;77;21025;-61
2021/11/03 08:42:39;;;;;;;5.80;5.20;;;;;;;15.61;50.81;99162.69;1774782;79;21651;-62
2021/11/03 08:45:06;;;;;;;5.47;4.97;;;;;;;15.62;50.84;99176.36;1779561;79;21059;-62
2021/11/03 08:47:34;;;;;;;5.70;5.20;;;;;;;15.63;50.84;99174.00;1838899;77;21013;-61
2021/11/03 08:50:01;;;;;;;5.83;5.33;;;;;;;15.62;50.86;99177.17;1844805;77;21060;-61
2021/11/03 08:52:28;;;;;;;5.45;4.95;;;;;;;15.63;50.87;99183.38;1842504;77;21006;-63
2021/11/03 08:54:54;;;;;;;5.28;4.78;;;;;;;15.64;50.88;99178.30;1832585;77;20983;-60
2021/11/03 08:57:22;;;;;;;5.92;5.33;;;;;;;15.64;50.90;99190.36;1821979;77;21024;-61
2021/11/03 08:59:48;;;;;;;5.35;4.85;;;;;;;15.64;50.89;99189.02;1831791;77;20978;-62
2021/11/03 09:02:14;;;;;;;5.55;5.05;;;;;;;15.65;50.90;99201.38;1753868;80;21140;-61
2021/11/03 09:04:41;;;;;;;5.92;5.33;;;;;;;15.65;50.89;99199.52;1839945;77;20991;-61
2021/11/03 09:07:11;;;;;;;5.58;5.08;;;;;;;15.66;50.94;99203.01;1847676;77;20998;-62
2021/11/03 09:09:36;;;;;;;4.83;4.42;;;;;;;15.66;50.91;99207.02;1841104;77;21009;-62
2021/11/03 09:12:04;;;;;;;5.60;5.10;;;;;;;15.67;50.91;99216.72;1839761;77;21485;-60
2021/11/03 09:14:30;;;;;;;5.70;5.10;;;;;;;15.68;50.89;99212.98;1809169;77;21098;-62
2021/11/03 09:20:45;;;;;;;5.60;5.10;;;;;;;15.69;50.88;99209.29;1827440;77;21537;-61
2021/11/03 09:23:12;;;;;;;6.22;5.62;;;;;;;15.68;50.93;99203.61;1827860;77;21030;-60
2021/11/03 09:25:38;;;;;;;5.83;5.30;;;;;;;15.68;50.93;99207.63;1835576;77;20990;-62
2021/11/03 09:28:05;;;;;;;5.65;5.08;;;;;;;15.69;50.95;99207.42;1807810;79;21031;-62
2021/11/03 09:30:31;;;;;;;6.00;5.50;;;;;;;15.69;50.94;99214.12;1764646;79;21010;-62
2021/11/03 09:33:03;;;;;;;6.05;5.45;;;;;;;15.71;50.93;99209.36;1794702;79;20995;-62
2021/11/03 09:35:33;;;;;;;5.58;5.08;;;;;;;15.73;50.95;99215.88;1778961;79;21054;-61
2021/11/03 09:38:00;;;;;;;6.05;5.47;;;;;;;15.73;50.97;99218.03;1769334;79;21568;-63
2021/11/03 09:40:56;;;;;;;5.92;5.42;;;;;;;15.76;50.95;99217.30;1771622;79;21052;-60
2021/11/03 09:44:01;;;;;;;7.72;6.12;;;;;;;15.76;50.95;99223.50;1790747;79;20999;-62
2021/11/03 09:46:44;;;;;;;5.90;5.30;;;;;;;15.78;50.96;99229.95;1796923;79;21051;-62
2021/11/03 09:49:36;;;;;;;6.25;5.50;;;;;;;15.77;51.00;99231.82;1773765;79;21068;-61
2021/11/03 09:52:33;;;;;;;5.90;5.30;;;;;;;15.78;51.01;99248.20;1786202;79;21541;-62
2021/11/03 09:55:24;;;;;;;5.95;5.35;;;;;;;15.78;51.03;99233.48;1759324;79;21208;-61
2021/11/03 09:58:03;;;;;;;5.92;5.25;;;;;;;15.78;51.06;99234.81;1783103;79;21030;-62
2021/11/03 10:00:44;;;;;;;6.10;5.50;;;;;;;15.80;51.07;99235.92;1791151;79;21026;-61
2021/11/03 10:03:48;;;;;;;6.85;6.00;;;;;;;15.82;51.04;99251.25;1750877;80;20992;-62
2021/11/03 10:06:42;;;;;;;6.00;5.50;;;;;;;15.86;51.01;99249.81;1761837;79;21104;-62
2021/11/03 10:09:09;;;;;;;5.55;5.05;;;;;;;15.88;50.95;99256.59;1774263;79;21137;-62
2021/11/03 10:11:41;;;;;;;5.95;4.90;;;;;;;15.90;50.94;99267.09;1795273;79;21070;-61
2021/11/03 10:14:09;;;;;;;;;;;;;;;15.91;50.93;99270.06;1796605;79;21507;-61
2021/11/03 10:16:42;;;;;;;6.10;5.33;;;;;;;15.94;50.92;99260.80;1805729;79;20209;-61
2021/11/03 10:19:20;;;;;;;7.10;5.90;;;;;;;15.91;50.97;99264.18;1789011;79;20990;-62
2021/11/03 10:21:50;;;;;;;5.90;5.40;;;;;;;15.94;50.96;99268.84;1771159;79;23305;-63
2021/11/03 10:24:25;;;;;;;6.20;5.60;;;;;;;15.95;50.96;99273.14;1770576;79;21241;-60
2021/11/03 10:27:02;;;;;;;7.00;6.30;;;;;;;15.96;50.94;99274.27;1776098;79;21038;-63
2021/11/03 10:29:37;;;;;;;6.35;5.75;;;;;;;15.98;50.92;99266.84;1770471;80;21561;-63
2021/11/03 10:32:30;;;;;;;6.75;6.15;;;;;;;16.01;50.90;99264.23;1769256;79;21029;-63
2021/11/03 10:35:14;;;;;;;7.20;6.50;;;;;;;16.03;50.87;99269.70;1764557;79;21896;-62
2021/11/03 10:37:45;;;;;;;6.78;6.08;;;;;;;16.05;50.84;99267.63;1763999;79;20987;-61
2021/11/03 10:40:29;;;;;;;6.58;5.97;;;;;;;16.06;50.81;99275.95;1779325;79;21014;-62
2021/11/03 10:43:03;;;;;;;6.17;5.58;;;;;;;16.09;50.78;99270.17;1753632;79;21029;-61
2021/11/03 10:45:38;;;;;;;6.25;5.65;;;;;;;16.11;50.77;99278.01;1787998;78;21098;-61
2021/11/03 10:48:25;;;;;;;6.70;6.10;;;;;;;16.12;50.75;99275.62;1806229;77;21116;-62
2021/11/03 10:51:00;;;;;;;7.30;6.25;;;;;;;16.12;50.74;99284.47;1787264;77;22059;-61
2021/11/03 10:53:35;;;;;;;7.20;6.33;;;;;;;16.15;50.75;99290.43;1786303;77;21021;-60
2021/11/03 10:56:31;;;;;;;6.80;6.20;;;;;;;16.14;50.75;99282.10;1810887;77;21050;-62
2021/11/03 10:59:18;;;;;;;6.60;6.00;;;;;;;16.13;50.76;99279.95;1808605;77;20986;-62
2021/11/03 11:01:45;;;;;;;7.62;6.85;;;;;;;16.12;50.81;99283.66;1815731;78;21062;-62
2021/11/03 11:04:17;;;;;;;6.62;6.03;;;;;;;16.12;50.85;99278.30;1819093;78;21463;-62
2021/11/03 11:06:53;;;;;;;7.08;6.42;;;;;;;16.12;50.88;99287.67;1781232;79;21065;-61
2021/11/03 11:09:37;;;;;;;6.83;6.05;;;;;;;16.13;50.87;99297.38;1753890;79;21563;-61
2021/11/03 11:12:36;;;;;;;7.47;6.17;;;;;;;16.15;50.86;99305.17;1809825;78;21022;-61
2021/11/03 11:15:33;;;;;;;6.85;6.17;;;;;;;16.18;50.87;99299.39;1822414;77;21851;-60
2021/11/03 11:18:46;;;;;;;7.70;6.90;;;;;;;16.21;50.83;99300.31;1807987;77;21087;-61
2021/11/03 11:21:39;;;;;;;7.58;6.85;;;;;;;16.24;50.76;99307.37;1796062;77;21026;-62
2021/11/03 11:24:23;;;;;;;6.70;6.10;;;;;;;16.29;50.71;99304.06;1802122;77;21039;-62
2021/11/03 11:27:16;;;;;;;7.17;6.47;;;;;;;16.35;50.64;99306.41;1814801;77;21598;-61
2021/11/03 11:30:03;;;;;;;7.72;6.58;;;;;;;16.40;50.52;99307.41;1849707;77;21188;-61
2021/11/03 11:32:44;;;;;;;7.97;6.30;;;;;;;16.46;50.43;99315.10;1856657;77;21457;-62
2021/11/03 11:35:36;;;;;;;7.08;6.17;;;;;;;16.51;50.40;99314.75;1823015;77;21616;-61
2021/11/03 11:38:14;;;;;;;8.80;5.97;;;;;;;16.56;50.41;99313.27;1851861;77;20976;-62
2021/11/03 11:41:00;;;;;;;6.72;6.12;;;;;;;16.60;50.35;99309.12;1826338;77;21009;-62
2021/11/03 11:43:40;;;;;;;7.35;6.53;;;;;;;16.64;50.27;99313.00;1847508;77;23379;-61
2021/11/03 11:46:37;;;;;;;6.60;6.00;;;;;;;16.69;50.25;99317.20;1851974;77;21065;-62
2021/11/03 11:49:12;;;;;;;7.33;6.42;;;;;;;16.73;50.16;99313.04;1853950;77;21049;-62
2021/11/03 11:51:40;;;;;;;7.20;6.50;;;;;;;16.79;50.08;99314.03;1831116;77;21760;-62
2021/11/03 11:54:27;;;;;;;7.80;7.00;;;;;;;16.85;50.13;99321.23;1839702;77;21054;-62
2021/11/03 11:57:15;;;;;;;7.50;6.03;;;;;;;16.92;50.10;99331.39;1830750;77;21462;-61